createdAt,value
2019-01-23T00:01:31.505Z,32.07
2019-01-23T00:06:36.060Z,32.17
2019-01-23T00:11:40.645Z,26.33
2019-01-23T00:16:45.227Z,29.05
2019-01-23T00:21:49.838Z,34.88
2019-01-23T00:26:54.435Z,23.83
2019-01-23T00:31:59.929Z,26.57
2019-01-23T00:37:04.661Z,30.10
2019-01-23T00:42:09.274Z,27.00
2019-01-23T00:47:13.794Z,21.13
2019-01-23T00:52:18.314Z,20.53
2019-01-23T00:57:22.927Z,21.80
2019-01-23T01:02:27.526Z,20.50
2019-01-23T01:07:32.158Z,19.23
2019-01-23T01:12:36.767Z,19.17
2019-01-23T01:17:41.354Z,18.00
2019-01-23T01:22:45.928Z,16.43
2019-01-23T01:27:50.469Z,16.03
2019-01-23T01:32:55.053Z,17.70
2019-01-23T01:37:59.625Z,12.00
2019-01-23T01:43:04.205Z,13.60
2019-01-23T01:48:08.819Z,16.47
2019-01-23T01:53:13.398Z,14.13
2019-01-23T01:58:17.958Z,16.73
2019-01-23T02:03:22.566Z,14.43
2019-01-23T02:08:27.137Z,15.93
2019-01-23T02:13:31.676Z,17.20
2019-01-23T02:18:36.185Z,17.13
2019-01-23T02:23:40.754Z,16.10
2019-01-23T02:28:45.264Z,17.30
2019-01-23T02:33:49.870Z,21.03
2019-01-23T02:38:54.376Z,18.53
2019-01-23T02:43:58.993Z,15.37
2019-01-23T02:49:03.586Z,21.27
2019-01-23T02:54:08.177Z,21.73
2019-01-23T02:59:17.315Z,17.67
2019-01-23T03:04:18.935Z,20.63
2019-01-23T03:09:23.491Z,20.67
2019-01-23T03:14:28.110Z,19.10
2019-01-23T03:19:32.807Z,17.07
2019-01-23T03:24:37.365Z,12.73
2019-01-23T03:29:41.954Z,17.90
2019-01-23T03:34:46.582Z,15.23
2019-01-23T03:39:51.294Z,16.50
2019-01-23T03:44:55.911Z,14.80
2019-01-23T03:50:00.487Z,14.30
2019-01-23T03:55:06.183Z,19.97
2019-01-23T04:00:13.588Z,16.97
2019-01-23T04:05:18.182Z,15.07
2019-01-23T04:10:22.736Z,19.93
2019-01-23T04:15:27.305Z,16.97
2019-01-23T04:20:31.866Z,19.57
2019-01-23T04:25:36.447Z,17.57
2019-01-23T04:30:41.061Z,15.30
2019-01-23T04:35:45.619Z,19.73
2019-01-23T04:40:50.140Z,19.20
2019-01-23T04:45:54.706Z,16.70
2019-01-23T04:51:21.046Z,16.53
2019-01-23T04:56:25.624Z,17.93
2019-01-23T05:01:30.292Z,23.07
2019-01-23T05:06:34.803Z,21.43
2019-01-23T05:11:39.392Z,16.50
2019-01-23T05:16:43.899Z,25.53
2019-01-23T05:21:48.477Z,24.37
2019-01-23T05:26:53.060Z,21.50
2019-01-23T05:31:57.702Z,19.27
2019-01-23T05:37:02.298Z,21.23
2019-01-23T05:42:06.880Z,17.70
2019-01-23T05:47:12.706Z,20.57
2019-01-23T05:52:17.318Z,23.07
2019-01-23T05:57:21.888Z,22.23
2019-01-23T06:02:26.414Z,19.73
2019-01-23T06:07:31.027Z,26.63
2019-01-23T06:12:35.599Z,28.33
2019-01-23T06:17:40.455Z,22.73
2019-01-23T06:22:45.013Z,24.00
2019-01-23T06:27:49.510Z,26.47
2019-01-23T06:32:55.247Z,25.03
2019-01-23T06:37:59.862Z,28.57
2019-01-23T06:43:04.404Z,26.77
2019-01-23T06:48:08.999Z,28.60
2019-01-23T06:53:14.090Z,32.80
2019-01-23T06:58:18.878Z,28.33
2019-01-23T07:03:23.479Z,32.07
2019-01-23T07:08:28.046Z,33.10
2019-01-23T07:13:32.663Z,25.90
2019-01-23T07:18:37.231Z,22.87
2019-01-23T07:23:41.845Z,25.73
2019-01-23T07:28:49.283Z,26.17
2019-01-23T07:33:52.648Z,31.43
2019-01-23T07:38:57.374Z,33.30
2019-01-23T07:44:01.955Z,30.63
2019-01-23T07:49:06.572Z,37.15
2019-01-23T07:54:11.168Z,40.67
2019-01-23T07:59:15.768Z,30.70
2019-01-23T08:04:20.357Z,35.05
2019-01-23T08:09:24.952Z,23.90
2019-01-23T08:14:29.552Z,28.50
2019-01-23T08:19:34.188Z,35.90
2019-01-23T08:24:38.870Z,35.78
2019-01-23T08:29:43.478Z,34.23
2019-01-23T08:34:48.127Z,39.40
2019-01-23T08:39:52.726Z,37.58
2019-01-23T08:44:57.305Z,31.57
2019-01-23T08:50:01.960Z,31.90
2019-01-23T08:55:06.701Z,35.00
2019-01-23T09:00:11.339Z,32.20
2019-01-23T09:05:16.052Z,31.70
2019-01-23T09:10:21.818Z,32.60
2019-01-23T09:15:26.389Z,36.55
2019-01-23T09:20:30.943Z,23.17
2019-01-23T09:25:35.536Z,29.83
2019-01-23T09:31:24.043Z,28.87
2019-01-23T09:36:57.752Z,27.77
2019-01-23T09:42:27.785Z,25.73
2019-01-23T09:48:00.614Z,30.07
2019-01-23T09:53:38.607Z,27.97
2019-01-23T09:58:43.215Z,31.10
2019-01-23T10:03:47.808Z,23.53
2019-01-23T10:08:52.525Z,25.67
2019-01-23T10:13:57.094Z,29.87
2019-01-23T10:19:01.688Z,27.70
2019-01-23T10:24:06.259Z,18.30
2019-01-23T10:29:10.781Z,30.37
2019-01-23T10:34:15.385Z,29.37
2019-01-23T10:39:19.980Z,31.30
2019-01-23T10:44:24.613Z,26.97
2019-01-23T10:49:29.214Z,25.37
2019-01-23T10:54:33.790Z,25.27
2019-01-23T10:59:38.395Z,31.97
2019-01-23T11:04:42.980Z,26.80
2019-01-23T11:09:47.583Z,30.57
2019-01-23T11:14:52.215Z,30.63
2019-01-23T11:19:56.790Z,22.63
2019-01-23T11:25:01.376Z,24.53
2019-01-23T11:30:08.661Z,32.67
2019-01-23T11:35:13.464Z,24.97
2019-01-23T11:40:23.703Z,26.90
2019-01-23T11:45:28.518Z,31.57
2019-01-23T11:50:33.136Z,31.27
2019-01-23T11:55:37.760Z,27.83
2019-01-23T12:00:42.580Z,30.20
2019-01-23T12:05:47.206Z,25.13
2019-01-23T12:10:51.802Z,23.57
2019-01-23T12:15:56.431Z,27.20
2019-01-23T12:21:01.113Z,26.97
2019-01-23T12:26:05.906Z,25.10
2019-01-23T12:31:10.512Z,26.13
2019-01-23T12:36:15.179Z,21.60
2019-01-23T12:41:19.828Z,19.47
2019-01-23T12:46:24.461Z,22.37
2019-01-23T12:51:29.047Z,26.33
2019-01-23T12:56:34.447Z,25.13
2019-01-23T13:01:42.095Z,26.30
2019-01-23T13:06:45.390Z,22.00
2019-01-23T13:11:49.990Z,26.23
2019-01-23T13:16:54.610Z,26.17
2019-01-23T13:21:59.195Z,23.97
2019-01-23T13:27:03.918Z,18.90
2019-01-23T13:32:08.561Z,26.10
2019-01-23T13:37:13.195Z,21.50
2019-01-23T13:42:17.809Z,23.97
2019-01-23T13:47:22.368Z,21.90
2019-01-23T13:52:27.045Z,22.77
2019-01-23T13:57:31.686Z,27.07
2019-01-23T14:02:36.197Z,25.97
2019-01-23T14:07:40.849Z,20.87
2019-01-23T14:12:45.474Z,22.60
2019-01-23T14:17:50.093Z,25.53
2019-01-23T14:22:54.720Z,23.87
2019-01-23T14:27:59.300Z,22.73
2019-01-23T14:33:04.122Z,24.43
2019-01-23T14:38:08.747Z,21.90
2019-01-23T14:43:13.395Z,19.03
2019-01-23T14:48:17.969Z,17.47
2019-01-23T14:53:22.594Z,19.60
2019-01-23T14:58:27.233Z,13.97
2019-01-23T15:03:31.757Z,14.47
2019-01-23T15:08:36.377Z,21.60
2019-01-23T15:13:40.965Z,22.03
2019-01-23T15:18:45.585Z,18.47
2019-01-23T15:23:50.160Z,18.10
2019-01-23T15:28:54.760Z,17.07
2019-01-23T15:33:59.387Z,16.93
2019-01-23T15:39:05.371Z,17.43
2019-01-23T15:44:09.986Z,16.40
2019-01-23T15:49:14.582Z,17.90
2019-01-23T15:54:19.151Z,22.50
2019-01-23T15:59:23.750Z,20.67
2019-01-23T16:04:28.282Z,27.75
2019-01-23T16:09:32.896Z,18.77
2019-01-23T16:14:38.128Z,23.18
2019-01-23T16:19:42.727Z,18.37
2019-01-23T16:24:47.369Z,18.87
2019-01-23T16:29:52.007Z,19.77
2019-01-23T16:34:56.623Z,24.10
2019-01-23T16:40:01.265Z,23.20
2019-01-23T16:45:07.334Z,19.60
2019-01-23T16:50:17.348Z,23.70
2019-01-23T16:55:21.950Z,23.13
2019-01-23T17:00:27.109Z,26.33
2019-01-23T17:05:32.799Z,24.53
2019-01-23T17:10:37.524Z,20.83
2019-01-23T17:15:42.173Z,25.68
2019-01-23T17:20:48.994Z,23.97
2019-01-23T17:25:53.634Z,23.90
2019-01-23T17:30:58.153Z,20.53
2019-01-23T17:36:02.793Z,24.63
2019-01-23T17:41:07.503Z,28.53
2019-01-23T17:46:12.053Z,32.43
2019-01-23T17:51:16.647Z,35.90
2019-01-23T17:56:21.266Z,40.13
2019-01-23T18:01:25.883Z,38.80
2019-01-23T18:06:30.534Z,31.17
2019-01-23T18:11:35.122Z,38.53
2019-01-23T18:16:39.808Z,42.17
2019-01-23T18:21:44.585Z,43.43
2019-01-23T18:26:49.314Z,49.30
2019-01-23T18:32:03.298Z,40.40
2019-01-23T18:37:39.751Z,35.10
2019-01-23T18:43:40.190Z,35.57
2019-01-23T18:49:20.735Z,35.63
2019-01-23T18:54:25.357Z,36.90
2019-01-23T18:59:29.993Z,35.27
2019-01-23T19:04:34.687Z,37.07
2019-01-23T19:09:39.358Z,37.37
2019-01-23T19:14:44.115Z,40.30
2019-01-23T19:19:48.733Z,36.40
2019-01-23T19:24:53.795Z,32.80
2019-01-23T19:29:58.419Z,34.97
2019-01-23T19:35:03.011Z,29.23
2019-01-23T19:40:08.543Z,40.37
2019-01-23T19:45:16.638Z,31.87
2019-01-23T19:50:21.244Z,42.67
2019-01-23T19:55:25.959Z,37.50
2019-01-23T20:00:30.666Z,36.87
2019-01-23T20:05:35.325Z,38.20
2019-01-23T20:10:40.052Z,38.77
2019-01-23T20:15:44.691Z,35.28
2019-01-23T20:20:49.312Z,35.45
2019-01-23T20:25:53.931Z,33.20
2019-01-23T20:30:58.566Z,39.00
2019-01-23T20:36:03.200Z,38.85
2019-01-23T20:41:07.952Z,35.00
2019-01-23T20:46:12.656Z,38.83
2019-01-23T20:51:17.315Z,33.87
2019-01-23T20:56:21.979Z,32.57
2019-01-23T21:01:26.587Z,27.17
2019-01-23T21:06:31.230Z,32.67
2019-01-23T21:11:35.891Z,33.63
2019-01-23T21:16:40.481Z,36.00
2019-01-23T21:21:45.028Z,35.50
2019-01-23T21:26:49.660Z,36.57
2019-01-23T21:31:54.306Z,41.23
2019-01-23T21:36:59.065Z,44.10
2019-01-23T21:42:03.765Z,42.33
2019-01-23T21:47:08.402Z,39.90
2019-01-23T21:52:13.008Z,47.17
2019-01-23T21:57:17.661Z,42.20
2019-01-23T22:02:22.287Z,42.40
2019-01-23T22:07:27.126Z,50.00
2019-01-23T22:12:31.968Z,40.80
2019-01-23T22:17:36.593Z,44.10
2019-01-23T22:22:41.305Z,46.03
2019-01-23T22:27:45.892Z,39.83
2019-01-23T22:32:50.724Z,47.37
2019-01-23T22:37:55.266Z,48.40
2019-01-23T22:43:00.003Z,46.37
2019-01-23T22:48:05.251Z,44.47
2019-01-23T22:53:09.935Z,41.30
2019-01-23T22:58:14.578Z,46.13
2019-01-23T23:03:20.898Z,43.77
2019-01-23T23:08:25.532Z,44.93
2019-01-23T23:13:30.100Z,48.57
2019-01-23T23:18:34.687Z,48.30
2019-01-23T23:23:42.298Z,44.53
2019-01-23T23:28:47.134Z,40.90
2019-01-23T23:33:51.841Z,44.50
2019-01-23T23:38:56.492Z,37.20
2019-01-23T23:44:01.041Z,40.90
2019-01-23T23:49:05.643Z,39.30
2019-01-23T23:54:10.187Z,40.20
2019-01-23T23:59:14.715Z,39.27
